sensor_id;sensor_type;location;lat;lon;timestamp;temperature;humidity
7232;DHT22;3657;49.630;11.018;2022-09-27T00:01:11;12.80;99.90
7232;DHT22;3657;49.630;11.018;2022-09-27T00:03:38;12.70;99.90
7232;DHT22;3657;49.630;11.018;2022-09-27T00:06:07;12.70;99.90
7232;DHT22;3657;49.630;11.018;2022-09-27T00:08:35;12.70;99.90
7232;DHT22;3657;49.630;11.018;2022-09-27T00:11:03;12.70;99.90
7232;DHT22;3657;49.630;11.018;2022-09-27T00:13:31;12.70;99.90
7232;DHT22;3657;49.630;11.018;2022-09-27T00:15:59;12.70;99.90
7232;DHT22;3657;49.630;11.018;2022-09-27T00:18:31;12.70;99.90
7232;DHT22;3657;49.630;11.018;2022-09-27T00:21:04;12.70;99.90
7232;DHT22;3657;49.630;11.018;2022-09-27T00:23:31;12.70;99.90
7232;DHT22;3657;49.630;11.018;2022-09-27T00:25:59;12.60;99.90
7232;DHT22;3657;49.630;11.018;2022-09-27T00:28:26;12.60;99.90
7232;DHT22;3657;49.630;11.018;2022-09-27T00:30:53;12.60;99.90
7232;DHT22;3657;49.630;11.018;2022-09-27T00:33:19;12.60;99.90
7232;DHT22;3657;49.630;11.018;2022-09-27T00:35:47;12.60;99.90
7232;DHT22;3657;49.630;11.018;2022-09-27T00:38:14;12.60;99.90
7232;DHT22;3657;49.630;11.018;2022-09-27T00:40:41;12.50;99.90
7232;DHT22;3657;49.630;11.018;2022-09-27T00:43:15;12.50;99.90
7232;DHT22;3657;49.630;11.018;2022-09-27T00:45:43;12.50;99.90
7232;DHT22;3657;49.630;11.018;2022-09-27T00:48:14;12.50;99.90
7232;DHT22;3657;49.630;11.018;2022-09-27T00:50:43;12.50;99.90
7232;DHT22;3657;49.630;11.018;2022-09-27T00:53:15;12.40;99.90
7232;DHT22;3657;49.630;11.018;2022-09-27T00:55:48;12.50;99.90
7232;DHT22;3657;49.630;11.018;2022-09-27T00:58:18;12.40;99.90
7232;DHT22;3657;49.630;11.018;2022-09-27T01:00:48;12.40;99.90
7232;DHT22;3657;49.630;11.018;2022-09-27T01:03:22;12.40;99.90
7232;DHT22;3657;49.630;11.018;2022-09-27T01:05:51;12.40;99.90
7232;DHT22;3657;49.630;11.018;2022-09-27T01:08:20;12.40;99.90
7232;DHT22;3657;49.630;11.018;2022-09-27T01:10:52;12.50;99.90
7232;DHT22;3657;49.630;11.018;2022-09-27T01:13:26;12.50;99.90
7232;DHT22;3657;49.630;11.018;2022-09-27T01:16:02;12.50;99.90
7232;DHT22;3657;49.630;11.018;2022-09-27T01:18:33;12.50;99.90
7232;DHT22;3657;49.630;11.018;2022-09-27T01:21:25;12.50;99.90
7232;DHT22;3657;49.630;11.018;2022-09-27T01:24:33;12.40;99.90
7232;DHT22;3657;49.630;11.018;2022-09-27T01:27:36;12.40;99.90
7232;DHT22;3657;49.630;11.018;2022-09-27T01:30:17;12.40;99.90
7232;DHT22;3657;49.630;11.018;2022-09-27T01:32:50;12.30;99.90
7232;DHT22;3657;49.630;11.018;2022-09-27T01:35:27;12.30;99.90
7232;DHT22;3657;49.630;11.018;2022-09-27T01:38:04;12.30;99.90
7232;DHT22;3657;49.630;11.018;2022-09-27T01:40:39;12.30;99.90
7232;DHT22;3657;49.630;11.018;2022-09-27T01:43:11;12.30;99.90
7232;DHT22;3657;49.630;11.018;2022-09-27T01:45:43;12.30;99.90
7232;DHT22;3657;49.630;11.018;2022-09-27T01:48:15;12.20;99.90
7232;DHT22;3657;49.630;11.018;2022-09-27T01:50:46;12.30;99.90
7232;DHT22;3657;49.630;11.018;2022-09-27T01:53:18;12.30;99.90
7232;DHT22;3657;49.630;11.018;2022-09-27T01:55:47;12.30;99.90
7232;DHT22;3657;49.630;11.018;2022-09-27T01:58:20;12.30;99.90
7232;DHT22;3657;49.630;11.018;2022-09-27T02:00:50;12.20;99.90
7232;DHT22;3657;49.630;11.018;2022-09-27T02:03:20;12.20;99.90
7232;DHT22;3657;49.630;11.018;2022-09-27T02:05:52;12.20;99.90
7232;DHT22;3657;49.630;11.018;2022-09-27T02:08:24;12.20;99.90
7232;DHT22;3657;49.630;11.018;2022-09-27T02:10:53;12.20;99.90
7232;DHT22;3657;49.630;11.018;2022-09-27T02:13:23;12.20;99.90
7232;DHT22;3657;49.630;11.018;2022-09-27T02:15:59;12.20;99.90
7232;DHT22;3657;49.630;11.018;2022-09-27T02:18:33;12.20;99.90
7232;DHT22;3657;49.630;11.018;2022-09-27T02:21:03;12.20;99.90
7232;DHT22;3657;49.630;11.018;2022-09-27T02:23:37;12.20;99.90
7232;DHT22;3657;49.630;11.018;2022-09-27T02:26:12;12.20;99.90
7232;DHT22;3657;49.630;11.018;2022-09-27T02:28:44;12.20;99.90
7232;DHT22;3657;49.630;11.018;2022-09-27T02:31:12;12.20;99.90
7232;DHT22;3657;49.630;11.018;2022-09-27T02:33:43;12.20;99.90
7232;DHT22;3657;49.630;11.018;2022-09-27T02:36:12;12.20;99.90
7232;DHT22;3657;49.630;11.018;2022-09-27T02:38:39;12.10;99.90
7232;DHT22;3657;49.630;11.018;2022-09-27T02:41:12;12.10;99.90
7232;DHT22;3657;49.630;11.018;2022-09-27T02:43:39;12.10;99.90
7232;DHT22;3657;49.630;11.018;2022-09-27T02:46:18;12.10;99.90
7232;DHT22;3657;49.630;11.018;2022-09-27T02:48:54;12.10;99.90
7232;DHT22;3657;49.630;11.018;2022-09-27T02:51:40;12.00;99.90
7232;DHT22;3657;49.630;11.018;2022-09-27T02:54:17;12.00;99.90
7232;DHT22;3657;49.630;11.018;2022-09-27T02:56:54;12.00;99.90
7232;DHT22;3657;49.630;11.018;2022-09-27T02:59:28;12.00;99.90
7232;DHT22;3657;49.630;11.018;2022-09-27T03:02:07;12.00;99.90
7232;DHT22;3657;49.630;11.018;2022-09-27T03:04:39;12.00;99.90
7232;DHT22;3657;49.630;11.018;2022-09-27T03:07:08;12.00;99.90
7232;DHT22;3657;49.630;11.018;2022-09-27T03:09:43;11.90;99.90
7232;DHT22;3657;49.630;11.018;2022-09-27T03:12:10;11.90;99.90
7232;DHT22;3657;49.630;11.018;2022-09-27T03:14:37;11.90;99.90
7232;DHT22;3657;49.630;11.018;2022-09-27T03:17:05;11.90;99.90
7232;DHT22;3657;49.630;11.018;2022-09-27T03:19:32;11.90;99.90
7232;DHT22;3657;49.630;11.018;2022-09-27T03:21:58;11.90;99.90
7232;DHT22;3657;49.630;11.018;2022-09-27T03:24:25;11.90;99.90
7232;DHT22;3657;49.630;11.018;2022-09-27T03:26:52;11.90;99.90
7232;DHT22;3657;49.630;11.018;2022-09-27T03:29:19;11.90;99.90
7232;DHT22;3657;49.630;11.018;2022-09-27T03:31:46;11.90;99.90
7232;DHT22;3657;49.630;11.018;2022-09-27T03:34:14;11.80;99.90
7232;DHT22;3657;49.630;11.018;2022-09-27T03:36:40;11.80;99.90
7232;DHT22;3657;49.630;11.018;2022-09-27T03:39:07;11.80;99.90
7232;DHT22;3657;49.630;11.018;2022-09-27T03:41:34;11.80;99.90
7232;DHT22;3657;49.630;11.018;2022-09-27T03:44:00;11.80;99.90
7232;DHT22;3657;49.630;11.018;2022-09-27T03:46:27;11.80;99.90
7232;DHT22;3657;49.630;11.018;2022-09-27T03:48:54;11.70;99.90
7232;DHT22;3657;49.630;11.018;2022-09-27T03:51:22;11.80;99.90
7232;DHT22;3657;49.630;11.018;2022-09-27T03:53:49;11.80;99.90
7232;DHT22;3657;49.630;11.018;2022-09-27T03:56:16;11.80;99.90
7232;DHT22;3657;49.630;11.018;2022-09-27T03:58:42;11.80;99.90
7232;DHT22;3657;49.630;11.018;2022-09-27T04:01:09;11.70;99.90
7232;DHT22;3657;49.630;11.018;2022-09-27T04:03:36;11.70;99.90
7232;DHT22;3657;49.630;11.018;2022-09-27T04:06:03;11.80;99.90
7232;DHT22;3657;49.630;11.018;2022-09-27T04:08:32;11.80;99.90
7232;DHT22;3657;49.630;11.018;2022-09-27T04:10:58;11.70;99.90
7232;DHT22;3657;49.630;11.018;2022-09-27T04:13:26;11.70;99.90
7232;DHT22;3657;49.630;11.018;2022-09-27T04:15:53;11.60;99.90
7232;DHT22;3657;49.630;11.018;2022-09-27T04:18:20;11.60;99.90
7232;DHT22;3657;49.630;11.018;2022-09-27T04:20:47;11.50;99.90
7232;DHT22;3657;49.630;11.018;2022-09-27T04:23:13;11.50;99.90
7232;DHT22;3657;49.630;11.018;2022-09-27T04:25:41;11.50;99.90
7232;DHT22;3657;49.630;11.018;2022-09-27T04:28:08;11.50;99.90
7232;DHT22;3657;49.630;11.018;2022-09-27T04:30:35;11.50;99.90
7232;DHT22;3657;49.630;11.018;2022-09-27T04:33:02;11.50;99.90
7232;DHT22;3657;49.630;11.018;2022-09-27T04:35:28;11.50;99.90
7232;DHT22;3657;49.630;11.018;2022-09-27T04:38:12;11.50;99.90
7232;DHT22;3657;49.630;11.018;2022-09-27T04:40:39;11.40;99.90
7232;DHT22;3657;49.630;11.018;2022-09-27T04:43:07;11.40;99.90
7232;DHT22;3657;49.630;11.018;2022-09-27T04:45:35;11.40;99.90
7232;DHT22;3657;49.630;11.018;2022-09-27T04:48:01;11.40;99.90
7232;DHT22;3657;49.630;11.018;2022-09-27T04:50:28;11.40;99.90
7232;DHT22;3657;49.630;11.018;2022-09-27T04:52:57;11.40;99.90
7232;DHT22;3657;49.630;11.018;2022-09-27T04:55:24;11.40;99.90
7232;DHT22;3657;49.630;11.018;2022-09-27T04:57:52;11.30;99.90
7232;DHT22;3657;49.630;11.018;2022-09-27T05:00:20;11.30;99.90
7232;DHT22;3657;49.630;11.018;2022-09-27T05:02:47;11.30;99.90
7232;DHT22;3657;49.630;11.018;2022-09-27T05:05:14;11.30;99.90
7232;DHT22;3657;49.630;11.018;2022-09-27T05:07:41;11.30;99.90
7232;DHT22;3657;49.630;11.018;2022-09-27T05:10:08;11.30;99.90
7232;DHT22;3657;49.630;11.018;2022-09-27T05:12:35;11.30;99.90
7232;DHT22;3657;49.630;11.018;2022-09-27T05:15:02;11.30;99.90
7232;DHT22;3657;49.630;11.018;2022-09-27T05:17:30;11.30;99.90
7232;DHT22;3657;49.630;11.018;2022-09-27T05:19:58;11.30;99.90
7232;DHT22;3657;49.630;11.018;2022-09-27T05:22:25;11.30;99.90
7232;DHT22;3657;49.630;11.018;2022-09-27T05:24:51;11.20;99.90
7232;DHT22;3657;49.630;11.018;2022-09-27T05:27:18;11.30;99.90
7232;DHT22;3657;49.630;11.018;2022-09-27T05:29:45;11.20;99.90
7232;DHT22;3657;49.630;11.018;2022-09-27T05:32:12;11.10;99.90
7232;DHT22;3657;49.630;11.018;2022-09-27T05:34:40;11.10;99.90
7232;DHT22;3657;49.630;11.018;2022-09-27T05:37:07;11.20;99.90
7232;DHT22;3657;49.630;11.018;2022-09-27T05:39:33;11.20;99.90
7232;DHT22;3657;49.630;11.018;2022-09-27T05:42:00;11.20;99.90
7232;DHT22;3657;49.630;11.018;2022-09-27T05:44:29;11.20;99.90
7232;DHT22;3657;49.630;11.018;2022-09-27T05:46:55;11.20;99.90
7232;DHT22;3657;49.630;11.018;2022-09-27T05:49:23;11.20;99.90
7232;DHT22;3657;49.630;11.018;2022-09-27T05:51:51;11.30;99.90
7232;DHT22;3657;49.630;11.018;2022-09-27T05:54:17;11.30;99.90
7232;DHT22;3657;49.630;11.018;2022-09-27T05:56:44;11.30;99.90
7232;DHT22;3657;49.630;11.018;2022-09-27T05:59:11;11.20;99.90
7232;DHT22;3657;49.630;11.018;2022-09-27T06:01:37;11.20;99.90
7232;DHT22;3657;49.630;11.018;2022-09-27T06:04:04;11.20;99.90
7232;DHT22;3657;49.630;11.018;2022-09-27T06:06:31;11.10;99.90
7232;DHT22;3657;49.630;11.018;2022-09-27T06:09:02;11.20;99.90
7232;DHT22;3657;49.630;11.018;2022-09-27T06:11:29;11.10;99.90
7232;DHT22;3657;49.630;11.018;2022-09-27T06:13:56;11.10;99.90
7232;DHT22;3657;49.630;11.018;2022-09-27T06:16:23;11.10;99.90
7232;DHT22;3657;49.630;11.018;2022-09-27T06:18:49;11.10;99.90
7232;DHT22;3657;49.630;11.018;2022-09-27T06:21:16;11.10;99.90
7232;DHT22;3657;49.630;11.018;2022-09-27T06:23:43;11.10;99.90
7232;DHT22;3657;49.630;11.018;2022-09-27T06:26:11;11.10;99.90
7232;DHT22;3657;49.630;11.018;2022-09-27T06:28:38;11.10;99.90
7232;DHT22;3657;49.630;11.018;2022-09-27T06:31:05;11.10;99.90
7232;DHT22;3657;49.630;11.018;2022-09-27T06:33:33;11.20;99.90
7232;DHT22;3657;49.630;11.018;2022-09-27T06:36:00;11.20;99.90
7232;DHT22;3657;49.630;11.018;2022-09-27T06:38:27;11.20;99.90
7232;DHT22;3657;49.630;11.018;2022-09-27T06:40:54;11.20;99.90
7232;DHT22;3657;49.630;11.018;2022-09-27T06:43:24;11.20;99.90
7232;DHT22;3657;49.630;11.018;2022-09-27T06:45:51;11.20;99.90
7232;DHT22;3657;49.630;11.018;2022-09-27T06:48:19;11.20;99.90
7232;DHT22;3657;49.630;11.018;2022-09-27T06:50:46;11.20;99.90
7232;DHT22;3657;49.630;11.018;2022-09-27T06:53:15;11.20;99.90
7232;DHT22;3657;49.630;11.018;2022-09-27T06:55:42;11.10;99.90
7232;DHT22;3657;49.630;11.018;2022-09-27T06:58:10;11.10;99.90
7232;DHT22;3657;49.630;11.018;2022-09-27T07:00:56;11.20;99.90
7232;DHT22;3657;49.630;11.018;2022-09-27T07:03:23;11.10;99.90
7232;DHT22;3657;49.630;11.018;2022-09-27T07:05:58;11.20;99.90
7232;DHT22;3657;49.630;11.018;2022-09-27T07:08:25;11.20;99.90
7232;DHT22;3657;49.630;11.018;2022-09-27T07:10:54;11.10;99.90
7232;DHT22;3657;49.630;11.018;2022-09-27T07:13:21;11.10;99.90
7232;DHT22;3657;49.630;11.018;2022-09-27T07:15:48;11.10;99.90
7232;DHT22;3657;49.630;11.018;2022-09-27T07:18:16;11.10;99.90
7232;DHT22;3657;49.630;11.018;2022-09-27T07:20:42;11.10;99.90
7232;DHT22;3657;49.630;11.018;2022-09-27T07:23:14;11.20;99.90
7232;DHT22;3657;49.630;11.018;2022-09-27T07:25:41;11.20;99.90
7232;DHT22;3657;49.630;11.018;2022-09-27T07:28:15;11.20;99.90
7232;DHT22;3657;49.630;11.018;2022-09-27T07:30:42;11.20;99.90
7232;DHT22;3657;49.630;11.018;2022-09-27T07:33:10;11.20;99.90
7232;DHT22;3657;49.630;11.018;2022-09-27T07:35:39;11.20;99.90
7232;DHT22;3657;49.630;11.018;2022-09-27T07:38:07;11.20;99.90
7232;DHT22;3657;49.630;11.018;2022-09-27T07:40:36;11.20;99.90
7232;DHT22;3657;49.630;11.018;2022-09-27T07:43:03;11.30;99.90
7232;DHT22;3657;49.630;11.018;2022-09-27T07:45:30;11.30;99.90
7232;DHT22;3657;49.630;11.018;2022-09-27T07:47:57;11.40;99.90
7232;DHT22;3657;49.630;11.018;2022-09-27T07:50:24;11.50;99.90
7232;DHT22;3657;49.630;11.018;2022-09-27T07:52:52;11.70;99.90
7232;DHT22;3657;49.630;11.018;2022-09-27T07:55:18;11.90;99.90
7232;DHT22;3657;49.630;11.018;2022-09-27T07:57:45;12.00;99.90
7232;DHT22;3657;49.630;11.018;2022-09-27T08:00:14;12.10;99.90
7232;DHT22;3657;49.630;11.018;2022-09-27T08:02:41;12.00;99.90
7232;DHT22;3657;49.630;11.018;2022-09-27T08:05:09;11.90;99.90
7232;DHT22;3657;49.630;11.018;2022-09-27T08:07:36;11.80;99.90
7232;DHT22;3657;49.630;11.018;2022-09-27T08:10:07;11.70;99.90
7232;DHT22;3657;49.630;11.018;2022-09-27T08:12:34;11.70;99.90
7232;DHT22;3657;49.630;11.018;2022-09-27T08:15:01;11.70;99.90
7232;DHT22;3657;49.630;11.018;2022-09-27T08:17:29;11.70;99.90
7232;DHT22;3657;49.630;11.018;2022-09-27T08:19:55;11.60;99.90
7232;DHT22;3657;49.630;11.018;2022-09-27T08:22:22;11.60;99.90
7232;DHT22;3657;49.630;11.018;2022-09-27T08:24:49;11.60;99.90
7232;DHT22;3657;49.630;11.018;2022-09-27T08:27:17;11.60;99.90
7232;DHT22;3657;49.630;11.018;2022-09-27T08:29:43;11.60;99.90
7232;DHT22;3657;49.630;11.018;2022-09-27T08:32:11;11.60;99.90
7232;DHT22;3657;49.630;11.018;2022-09-27T08:34:37;11.60;99.90
7232;DHT22;3657;49.630;11.018;2022-09-27T08:37:05;11.60;99.90
7232;DHT22;3657;49.630;11.018;2022-09-27T08:39:32;11.60;99.90
7232;DHT22;3657;49.630;11.018;2022-09-27T08:42:04;11.60;99.90
7232;DHT22;3657;49.630;11.018;2022-09-27T08:44:44;11.60;99.90
7232;DHT22;3657;49.630;11.018;2022-09-27T08:47:16;11.60;99.90
7232;DHT22;3657;49.630;11.018;2022-09-27T08:49:48;11.60;99.90
7232;DHT22;3657;49.630;11.018;2022-09-27T08:52:19;11.60;99.90
7232;DHT22;3657;49.630;11.018;2022-09-27T08:54:48;11.60;99.90
7232;DHT22;3657;49.630;11.018;2022-09-27T08:57:16;11.60;99.90
7232;DHT22;3657;49.630;11.018;2022-09-27T08:59:58;11.60;99.90
7232;DHT22;3657;49.630;11.018;2022-09-27T09:02:27;11.60;99.90
7232;DHT22;3657;49.630;11.018;2022-09-27T09:05:01;11.60;99.90
7232;DHT22;3657;49.630;11.018;2022-09-27T09:07:46;11.60;99.90
7232;DHT22;3657;49.630;11.018;2022-09-27T09:10:29;11.60;99.90
7232;DHT22;3657;49.630;11.018;2022-09-27T09:13:23;11.70;99.90
7232;DHT22;3657;49.630;11.018;2022-09-27T09:16:09;11.70;99.90
7232;DHT22;3657;49.630;11.018;2022-09-27T09:18:56;11.80;99.90
7232;DHT22;3657;49.630;11.018;2022-09-27T09:21:34;11.80;99.90
7232;DHT22;3657;49.630;11.018;2022-09-27T09:24:21;11.90;99.90
7232;DHT22;3657;49.630;11.018;2022-09-27T09:26:54;12.00;99.90
7232;DHT22;3657;49.630;11.018;2022-09-27T09:29:39;12.10;99.90
7232;DHT22;3657;49.630;11.018;2022-09-27T09:32:26;12.20;99.90
7232;DHT22;3657;49.630;11.018;2022-09-27T09:34:59;12.30;99.90
7232;DHT22;3657;49.630;11.018;2022-09-27T09:37:34;12.40;99.90
7232;DHT22;3657;49.630;11.018;2022-09-27T09:40:07;12.50;99.90
7232;DHT22;3657;49.630;11.018;2022-09-27T09:42:43;12.60;99.90
7232;DHT22;3657;49.630;11.018;2022-09-27T09:45:16;12.60;99.90
7232;DHT22;3657;49.630;11.018;2022-09-27T09:47:50;12.80;99.90
7232;DHT22;3657;49.630;11.018;2022-09-27T09:50:21;12.80;99.90
7232;DHT22;3657;49.630;11.018;2022-09-27T09:52:54;12.90;99.90
7232;DHT22;3657;49.630;11.018;2022-09-27T09:55:23;12.90;99.90
7232;DHT22;3657;49.630;11.018;2022-09-27T09:58:00;12.70;99.90
7232;DHT22;3657;49.630;11.018;2022-09-27T10:00:27;12.60;99.90
7232;DHT22;3657;49.630;11.018;2022-09-27T10:02:58;12.40;99.90
7232;DHT22;3657;49.630;11.018;2022-09-27T10:05:26;12.30;99.90
7232;DHT22;3657;49.630;11.018;2022-09-27T10:07:56;12.30;99.90
7232;DHT22;3657;49.630;11.018;2022-09-27T10:10:23;12.20;99.90
7232;DHT22;3657;49.630;11.018;2022-09-27T10:12:50;12.20;99.90
7232;DHT22;3657;49.630;11.018;2022-09-27T10:15:18;12.10;99.90
7232;DHT22;3657;49.630;11.018;2022-09-27T10:17:47;12.20;99.90
7232;DHT22;3657;49.630;11.018;2022-09-27T10:20:23;12.10;99.90
7232;DHT22;3657;49.630;11.018;2022-09-27T10:22:53;12.10;99.90
7232;DHT22;3657;49.630;11.018;2022-09-27T10:25:21;12.10;99.90
7232;DHT22;3657;49.630;11.018;2022-09-27T10:27:50;12.10;99.90
7232;DHT22;3657;49.630;11.018;2022-09-27T10:30:23;12.10;99.90
7232;DHT22;3657;49.630;11.018;2022-09-27T10:32:52;12.20;99.90
7232;DHT22;3657;49.630;11.018;2022-09-27T10:35:34;12.20;99.90
7232;DHT22;3657;49.630;11.018;2022-09-27T10:38:26;12.20;99.90
7232;DHT22;3657;49.630;11.018;2022-09-27T10:40:54;12.30;99.90
7232;DHT22;3657;49.630;11.018;2022-09-27T10:43:28;12.40;99.90
7232;DHT22;3657;49.630;11.018;2022-09-27T10:46:08;12.50;99.90
7232;DHT22;3657;49.630;11.018;2022-09-27T10:48:37;12.50;99.90
7232;DHT22;3657;49.630;11.018;2022-09-27T10:51:22;12.50;99.90
7232;DHT22;3657;49.630;11.018;2022-09-27T10:53:50;12.50;99.90
7232;DHT22;3657;49.630;11.018;2022-09-27T10:56:26;12.50;99.90
7232;DHT22;3657;49.630;11.018;2022-09-27T10:58:54;12.40;99.90
7232;DHT22;3657;49.630;11.018;2022-09-27T11:01:21;12.40;99.90
7232;DHT22;3657;49.630;11.018;2022-09-27T11:03:50;12.50;99.90
7232;DHT22;3657;49.630;11.018;2022-09-27T11:06:27;12.50;99.90
7232;DHT22;3657;49.630;11.018;2022-09-27T11:08:54;12.50;99.90
7232;DHT22;3657;49.630;11.018;2022-09-27T11:11:24;12.50;99.90
7232;DHT22;3657;49.630;11.018;2022-09-27T11:13:58;12.70;99.90
7232;DHT22;3657;49.630;11.018;2022-09-27T11:16:41;13.10;99.90
7232;DHT22;3657;49.630;11.018;2022-09-27T11:19:27;13.50;99.90
7232;DHT22;3657;49.630;11.018;2022-09-27T11:22:07;13.70;99.90
7232;DHT22;3657;49.630;11.018;2022-09-27T11:24:52;13.90;99.90
7232;DHT22;3657;49.630;11.018;2022-09-27T11:27:30;14.00;99.90
7232;DHT22;3657;49.630;11.018;2022-09-27T11:30:04;14.00;99.90
7232;DHT22;3657;49.630;11.018;2022-09-27T11:32:52;13.80;99.90
7232;DHT22;3657;49.630;11.018;2022-09-27T11:35:29;13.60;99.90
7232;DHT22;3657;49.630;11.018;2022-09-27T11:38:13;13.40;99.90
7232;DHT22;3657;49.630;11.018;2022-09-27T11:40:55;13.60;99.90
7232;DHT22;3657;49.630;11.018;2022-09-27T11:43:55;13.90;99.90
7232;DHT22;3657;49.630;11.018;2022-09-27T11:46:25;14.00;99.90
7232;DHT22;3657;49.630;11.018;2022-09-27T11:49:17;13.90;99.90
7232;DHT22;3657;49.630;11.018;2022-09-27T11:52:07;13.80;99.90
7232;DHT22;3657;49.630;11.018;2022-09-27T11:54:50;13.60;99.90
7232;DHT22;3657;49.630;11.018;2022-09-27T11:57:22;13.50;99.90
7232;DHT22;3657;49.630;11.018;2022-09-27T12:00:02;13.50;99.90
7232;DHT22;3657;49.630;11.018;2022-09-27T12:05:34;13.80;99.90
7232;DHT22;3657;49.630;11.018;2022-09-27T12:08:11;13.90;99.90
7232;DHT22;3657;49.630;11.018;2022-09-27T12:10:46;14.00;99.90
7232;DHT22;3657;49.630;11.018;2022-09-27T12:13:17;14.10;99.90
7232;DHT22;3657;49.630;11.018;2022-09-27T12:15:46;14.10;99.90
7232;DHT22;3657;49.630;11.018;2022-09-27T12:18:19;14.10;99.90
7232;DHT22;3657;49.630;11.018;2022-09-27T12:20:50;14.20;99.90
7232;DHT22;3657;49.630;11.018;2022-09-27T12:23:21;14.30;99.90
7232;DHT22;3657;49.630;11.018;2022-09-27T12:25:54;14.30;99.90
7232;DHT22;3657;49.630;11.018;2022-09-27T12:28:29;14.40;99.90
7232;DHT22;3657;49.630;11.018;2022-09-27T12:31:03;14.40;99.90
7232;DHT22;3657;49.630;11.018;2022-09-27T12:33:37;14.40;99.90
7232;DHT22;3657;49.630;11.018;2022-09-27T12:36:08;14.40;99.90
7232;DHT22;3657;49.630;11.018;2022-09-27T12:38:44;14.50;99.90
7232;DHT22;3657;49.630;11.018;2022-09-27T12:41:17;14.50;99.90
7232;DHT22;3657;49.630;11.018;2022-09-27T12:43:47;14.50;99.90
7232;DHT22;3657;49.630;11.018;2022-09-27T12:46:25;14.40;99.90
7232;DHT22;3657;49.630;11.018;2022-09-27T12:49:04;14.40;99.90
7232;DHT22;3657;49.630;11.018;2022-09-27T12:51:35;14.40;99.90
7232;DHT22;3657;49.630;11.018;2022-09-27T12:54:34;14.30;99.90
7232;DHT22;3657;49.630;11.018;2022-09-27T12:57:15;14.30;99.90
7232;DHT22;3657;49.630;11.018;2022-09-27T12:59:53;14.40;99.90
7232;DHT22;3657;49.630;11.018;2022-09-27T13:02:52;14.30;99.90
7232;DHT22;3657;49.630;11.018;2022-09-27T13:08:42;14.20;99.90
7232;DHT22;3657;49.630;11.018;2022-09-27T13:11:14;14.20;99.90
7232;DHT22;3657;49.630;11.018;2022-09-27T13:13:45;14.20;99.90
7232;DHT22;3657;49.630;11.018;2022-09-27T13:16:12;14.10;99.90
7232;DHT22;3657;49.630;11.018;2022-09-27T13:18:51;14.10;99.90
7232;DHT22;3657;49.630;11.018;2022-09-27T13:21:54;14.20;99.90
7232;DHT22;3657;49.630;11.018;2022-09-27T13:24:30;14.40;99.90
7232;DHT22;3657;49.630;11.018;2022-09-27T13:26:56;14.40;99.90
7232;DHT22;3657;49.630;11.018;2022-09-27T13:29:32;14.30;99.90
7232;DHT22;3657;49.630;11.018;2022-09-27T13:32:17;14.30;99.90
7232;DHT22;3657;49.630;11.018;2022-09-27T13:34:46;14.30;99.90
7232;DHT22;3657;49.630;11.018;2022-09-27T13:37:33;14.20;99.90
7232;DHT22;3657;49.630;11.018;2022-09-27T13:40:25;14.30;99.90
7232;DHT22;3657;49.630;11.018;2022-09-27T13:43:14;14.40;99.90
7232;DHT22;3657;49.630;11.018;2022-09-27T13:45:51;14.30;99.90
7232;DHT22;3657;49.630;11.018;2022-09-27T13:48:25;14.40;99.90
7232;DHT22;3657;49.630;11.018;2022-09-27T13:50:58;14.20;99.90
7232;DHT22;3657;49.630;11.018;2022-09-27T13:53:29;14.20;99.90
7232;DHT22;3657;49.630;11.018;2022-09-27T13:55:57;14.10;99.90
7232;DHT22;3657;49.630;11.018;2022-09-27T13:58:39;14.10;99.90
7232;DHT22;3657;49.630;11.018;2022-09-27T14:01:15;14.00;99.90
7232;DHT22;3657;49.630;11.018;2022-09-27T14:03:44;14.00;99.90
7232;DHT22;3657;49.630;11.018;2022-09-27T14:06:14;13.90;99.90
7232;DHT22;3657;49.630;11.018;2022-09-27T14:08:45;13.90;99.90
7232;DHT22;3657;49.630;11.018;2022-09-27T14:11:14;13.90;99.90
7232;DHT22;3657;49.630;11.018;2022-09-27T14:13:44;13.80;99.90
7232;DHT22;3657;49.630;11.018;2022-09-27T14:16:15;13.90;99.90
7232;DHT22;3657;49.630;11.018;2022-09-27T14:18:46;13.90;99.90
7232;DHT22;3657;49.630;11.018;2022-09-27T14:21:20;13.80;99.90
7232;DHT22;3657;49.630;11.018;2022-09-27T14:23:48;13.70;99.90
7232;DHT22;3657;49.630;11.018;2022-09-27T14:26:23;13.80;99.90
7232;DHT22;3657;49.630;11.018;2022-09-27T14:28:50;13.80;99.90
7232;DHT22;3657;49.630;11.018;2022-09-27T14:31:21;13.80;99.90
7232;DHT22;3657;49.630;11.018;2022-09-27T14:33:48;13.80;99.90
7232;DHT22;3657;49.630;11.018;2022-09-27T14:36:25;13.70;99.90
7232;DHT22;3657;49.630;11.018;2022-09-27T14:39:14;13.70;99.90
7232;DHT22;3657;49.630;11.018;2022-09-27T14:41:41;13.70;99.90
7232;DHT22;3657;49.630;11.018;2022-09-27T14:44:14;13.80;99.90
7232;DHT22;3657;49.630;11.018;2022-09-27T14:46:42;13.80;99.90
7232;DHT22;3657;49.630;11.018;2022-09-27T14:49:17;13.80;99.90
7232;DHT22;3657;49.630;11.018;2022-09-27T14:51:49;13.70;99.90
7232;DHT22;3657;49.630;11.018;2022-09-27T14:54:20;13.80;99.90
7232;DHT22;3657;49.630;11.018;2022-09-27T14:56:47;13.90;99.90
7232;DHT22;3657;49.630;11.018;2022-09-27T14:59:16;13.80;99.90
7232;DHT22;3657;49.630;11.018;2022-09-27T15:01:49;13.80;99.90
7232;DHT22;3657;49.630;11.018;2022-09-27T15:04:17;13.70;99.90
7232;DHT22;3657;49.630;11.018;2022-09-27T15:06:45;13.70;99.90
7232;DHT22;3657;49.630;11.018;2022-09-27T15:09:13;13.60;99.90
7232;DHT22;3657;49.630;11.018;2022-09-27T15:11:42;13.50;99.90
7232;DHT22;3657;49.630;11.018;2022-09-27T15:14:12;13.50;99.90
7232;DHT22;3657;49.630;11.018;2022-09-27T15:16:39;13.50;99.90
7232;DHT22;3657;49.630;11.018;2022-09-27T15:19:14;13.50;99.90
7232;DHT22;3657;49.630;11.018;2022-09-27T15:21:41;13.50;99.90
7232;DHT22;3657;49.630;11.018;2022-09-27T15:24:38;13.40;99.90
7232;DHT22;3657;49.630;11.018;2022-09-27T15:27:13;13.40;99.90
7232;DHT22;3657;49.630;11.018;2022-09-27T15:29:40;13.40;99.90
7232;DHT22;3657;49.630;11.018;2022-09-27T15:32:14;13.40;99.90
7232;DHT22;3657;49.630;11.018;2022-09-27T15:34:42;13.30;99.90
7232;DHT22;3657;49.630;11.018;2022-09-27T15:37:24;13.30;99.90
7232;DHT22;3657;49.630;11.018;2022-09-27T15:39:52;13.20;99.90
7232;DHT22;3657;49.630;11.018;2022-09-27T15:42:19;13.20;99.90
7232;DHT22;3657;49.630;11.018;2022-09-27T15:44:47;13.20;99.90
7232;DHT22;3657;49.630;11.018;2022-09-27T15:50:38;13.30;99.90
7232;DHT22;3657;49.630;11.018;2022-09-27T15:53:07;13.30;99.90
7232;DHT22;3657;49.630;11.018;2022-09-27T15:55:40;13.30;99.90
7232;DHT22;3657;49.630;11.018;2022-09-27T15:58:12;13.30;99.90
7232;DHT22;3657;49.630;11.018;2022-09-27T16:00:50;13.30;99.90
7232;DHT22;3657;49.630;11.018;2022-09-27T16:03:17;13.30;99.90
7232;DHT22;3657;49.630;11.018;2022-09-27T16:05:44;13.20;99.90
7232;DHT22;3657;49.630;11.018;2022-09-27T16:08:10;13.20;99.90
7232;DHT22;3657;49.630;11.018;2022-09-27T16:10:41;13.20;99.90
7232;DHT22;3657;49.630;11.018;2022-09-27T16:13:09;13.30;99.90
7232;DHT22;3657;49.630;11.018;2022-09-27T16:15:36;13.20;99.90
7232;DHT22;3657;49.630;11.018;2022-09-27T16:18:03;13.20;99.90
7232;DHT22;3657;49.630;11.018;2022-09-27T16:20:30;13.30;99.90
7232;DHT22;3657;49.630;11.018;2022-09-27T16:22:57;13.20;99.90